sensor_id;sensor_type;location;lat;lon;timestamp;P1;durP1;ratioP1;P2;durP2;ratioP2
64598;SDS011;51008;51.504;11.548;2024-01-06T00:03:59;6.22;;;2.40;;
64598;SDS011;51008;51.504;11.548;2024-01-06T00:09:00;7.95;;;2.50;;
64598;SDS011;51008;51.504;11.548;2024-01-06T00:14:01;8.52;;;2.65;;
64598;SDS011;51008;51.504;11.548;2024-01-06T00:19:02;7.22;;;2.40;;
64598;SDS011;51008;51.504;11.548;2024-01-06T00:24:03;7.75;;;2.67;;
64598;SDS011;51008;51.504;11.548;2024-01-06T00:29:04;6.63;;;3.08;;
64598;SDS011;51008;51.504;11.548;2024-01-06T00:34:05;7.78;;;2.92;;
64598;SDS011;51008;51.504;11.548;2024-01-06T00:39:06;6.47;;;2.13;;
64598;SDS011;51008;51.504;11.548;2024-01-06T00:44:07;6.80;;;3.47;;
64598;SDS011;51008;51.504;11.548;2024-01-06T00:49:08;5.90;;;2.05;;
64598;SDS011;51008;51.504;11.548;2024-01-06T00:54:09;6.78;;;2.25;;
64598;SDS011;51008;51.504;11.548;2024-01-06T00:59:10;4.15;;;2.00;;
64598;SDS011;51008;51.504;11.548;2024-01-06T01:04:11;5.53;;;2.13;;
64598;SDS011;51008;51.504;11.548;2024-01-06T01:09:12;6.22;;;2.78;;
64598;SDS011;51008;51.504;11.548;2024-01-06T01:14:13;6.03;;;2.80;;
64598;SDS011;51008;51.504;11.548;2024-01-06T01:19:14;6.25;;;2.92;;
64598;SDS011;51008;51.504;11.548;2024-01-06T01:24:15;8.13;;;2.80;;
64598;SDS011;51008;51.504;11.548;2024-01-06T01:29:17;5.43;;;2.60;;
64598;SDS011;51008;51.504;11.548;2024-01-06T01:34:18;4.93;;;2.33;;
64598;SDS011;51008;51.504;11.548;2024-01-06T01:39:19;6.85;;;2.55;;
64598;SDS011;51008;51.504;11.548;2024-01-06T01:44:20;10.80;;;2.28;;
64598;SDS011;51008;51.504;11.548;2024-01-06T01:49:21;6.45;;;2.63;;
64598;SDS011;51008;51.504;11.548;2024-01-06T01:54:22;7.38;;;2.95;;
64598;SDS011;51008;51.504;11.548;2024-01-06T01:59:23;9.35;;;3.38;;
64598;SDS011;51008;51.504;11.548;2024-01-06T02:04:24;8.50;;;3.30;;
64598;SDS011;51008;51.504;11.548;2024-01-06T02:09:26;10.73;;;3.47;;
64598;SDS011;51008;51.504;11.548;2024-01-06T02:14:27;5.53;;;2.78;;
64598;SDS011;51008;51.504;11.548;2024-01-06T02:19:28;6.70;;;2.90;;
64598;SDS011;51008;51.504;11.548;2024-01-06T02:24:30;6.90;;;2.70;;
64598;SDS011;51008;51.504;11.548;2024-01-06T02:29:31;6.25;;;3.00;;
64598;SDS011;51008;51.504;11.548;2024-01-06T02:34:32;6.22;;;2.70;;
64598;SDS011;51008;51.504;11.548;2024-01-06T02:39:33;6.10;;;2.60;;
64598;SDS011;51008;51.504;11.548;2024-01-06T02:44:34;6.82;;;3.13;;
64598;SDS011;51008;51.504;11.548;2024-01-06T02:49:35;6.30;;;3.10;;
64598;SDS011;51008;51.504;11.548;2024-01-06T02:54:36;5.93;;;2.90;;
64598;SDS011;51008;51.504;11.548;2024-01-06T02:59:37;7.38;;;3.33;;
64598;SDS011;51008;51.504;11.548;2024-01-06T03:04:38;7.65;;;2.78;;
64598;SDS011;51008;51.504;11.548;2024-01-06T03:09:39;7.05;;;2.60;;
64598;SDS011;51008;51.504;11.548;2024-01-06T03:14:40;6.00;;;2.42;;
64598;SDS011;51008;51.504;11.548;2024-01-06T03:19:41;7.43;;;2.83;;
64598;SDS011;51008;51.504;11.548;2024-01-06T03:24:43;8.15;;;2.40;;
64598;SDS011;51008;51.504;11.548;2024-01-06T03:29:44;8.40;;;2.53;;
64598;SDS011;51008;51.504;11.548;2024-01-06T03:34:45;5.43;;;2.40;;
64598;SDS011;51008;51.504;11.548;2024-01-06T03:39:46;6.68;;;2.45;;
64598;SDS011;51008;51.504;11.548;2024-01-06T03:44:47;5.88;;;2.33;;
64598;SDS011;51008;51.504;11.548;2024-01-06T03:49:48;8.07;;;2.60;;
64598;SDS011;51008;51.504;11.548;2024-01-06T03:54:49;5.05;;;2.30;;
64598;SDS011;51008;51.504;11.548;2024-01-06T03:59:50;4.43;;;2.03;;
64598;SDS011;51008;51.504;11.548;2024-01-06T04:04:51;8.50;;;2.40;;
64598;SDS011;51008;51.504;11.548;2024-01-06T04:09:52;4.47;;;1.88;;
64598;SDS011;51008;51.504;11.548;2024-01-06T04:14:53;4.22;;;2.47;;
64598;SDS011;51008;51.504;11.548;2024-01-06T04:19:54;5.50;;;2.10;;
64598;SDS011;51008;51.504;11.548;2024-01-06T04:24:55;13.57;;;2.22;;
64598;SDS011;51008;51.504;11.548;2024-01-06T04:29:56;2.80;;;1.58;;
64598;SDS011;51008;51.504;11.548;2024-01-06T04:34:57;3.60;;;1.98;;
64598;SDS011;51008;51.504;11.548;2024-01-06T04:39:59;6.93;;;2.05;;
64598;SDS011;51008;51.504;11.548;2024-01-06T04:45:00;8.30;;;2.40;;
64598;SDS011;51008;51.504;11.548;2024-01-06T04:50:01;8.10;;;2.20;;
64598;SDS011;51008;51.504;11.548;2024-01-06T04:55:02;5.18;;;2.03;;
64598;SDS011;51008;51.504;11.548;2024-01-06T05:00:03;3.90;;;2.10;;
64598;SDS011;51008;51.504;11.548;2024-01-06T05:05:05;6.20;;;2.60;;
64598;SDS011;51008;51.504;11.548;2024-01-06T05:10:06;4.78;;;1.98;;
64598;SDS011;51008;51.504;11.548;2024-01-06T05:15:08;4.50;;;2.13;;
64598;SDS011;51008;51.504;11.548;2024-01-06T05:20:10;11.60;;;2.70;;
64598;SDS011;51008;51.504;11.548;2024-01-06T05:25:11;8.48;;;2.20;;
64598;SDS011;51008;51.504;11.548;2024-01-06T05:30:12;5.85;;;2.33;;
64598;SDS011;51008;51.504;11.548;2024-01-06T05:35:13;5.15;;;2.10;;
64598;SDS011;51008;51.504;11.548;2024-01-06T05:40:16;7.88;;;3.00;;
64598;SDS011;51008;51.504;11.548;2024-01-06T05:45:17;7.28;;;2.40;;
64598;SDS011;51008;51.504;11.548;2024-01-06T05:50:18;5.15;;;1.98;;
64598;SDS011;51008;51.504;11.548;2024-01-06T05:55:19;7.18;;;2.05;;
64598;SDS011;51008;51.504;11.548;2024-01-06T06:00:20;4.95;;;2.00;;
64598;SDS011;51008;51.504;11.548;2024-01-06T06:05:21;5.88;;;1.95;;
64598;SDS011;51008;51.504;11.548;2024-01-06T06:10:22;6.57;;;2.75;;
64598;SDS011;51008;51.504;11.548;2024-01-06T06:15:23;4.88;;;2.05;;
64598;SDS011;51008;51.504;11.548;2024-01-06T06:20:24;8.02;;;2.08;;
64598;SDS011;51008;51.504;11.548;2024-01-06T06:25:25;5.43;;;2.22;;
64598;SDS011;51008;51.504;11.548;2024-01-06T06:30:26;8.02;;;2.22;;
64598;SDS011;51008;51.504;11.548;2024-01-06T06:35:27;8.10;;;2.40;;
64598;SDS011;51008;51.504;11.548;2024-01-06T06:40:29;4.38;;;2.05;;
64598;SDS011;51008;51.504;11.548;2024-01-06T06:45:30;6.72;;;2.15;;
64598;SDS011;51008;51.504;11.548;2024-01-06T06:50:31;5.22;;;2.03;;
64598;SDS011;51008;51.504;11.548;2024-01-06T06:55:32;8.93;;;2.53;;
64598;SDS011;51008;51.504;11.548;2024-01-06T07:00:33;8.10;;;2.58;;
64598;SDS011;51008;51.504;11.548;2024-01-06T07:05:34;8.25;;;2.67;;
64598;SDS011;51008;51.504;11.548;2024-01-06T07:10:35;7.25;;;2.40;;
64598;SDS011;51008;51.504;11.548;2024-01-06T07:15:36;5.97;;;2.70;;
64598;SDS011;51008;51.504;11.548;2024-01-06T07:20:37;4.95;;;2.70;;
64598;SDS011;51008;51.504;11.548;2024-01-06T07:25:38;5.03;;;2.47;;
64598;SDS011;51008;51.504;11.548;2024-01-06T07:30:39;5.00;;;2.63;;
64598;SDS011;51008;51.504;11.548;2024-01-06T07:35:40;5.43;;;2.45;;
64598;SDS011;51008;51.504;11.548;2024-01-06T07:40:41;6.05;;;2.40;;
64598;SDS011;51008;51.504;11.548;2024-01-06T07:45:42;8.55;;;3.08;;
64598;SDS011;51008;51.504;11.548;2024-01-06T07:50:43;5.55;;;2.50;;
64598;SDS011;51008;51.504;11.548;2024-01-06T07:55:44;3.80;;;1.95;;
64598;SDS011;51008;51.504;11.548;2024-01-06T08:00:45;7.15;;;2.35;;
64598;SDS011;51008;51.504;11.548;2024-01-06T08:05:46;26.67;;;9.02;;
64598;SDS011;51008;51.504;11.548;2024-01-06T08:10:47;20.73;;;6.63;;
64598;SDS011;51008;51.504;11.548;2024-01-06T08:15:48;7.82;;;3.35;;
64598;SDS011;51008;51.504;11.548;2024-01-06T08:20:49;7.40;;;2.55;;
64598;SDS011;51008;51.504;11.548;2024-01-06T08:25:50;6.90;;;2.67;;
64598;SDS011;51008;51.504;11.548;2024-01-06T08:30:51;6.95;;;2.67;;
64598;SDS011;51008;51.504;11.548;2024-01-06T08:35:52;8.85;;;2.78;;
64598;SDS011;51008;51.504;11.548;2024-01-06T08:40:53;6.32;;;2.67;;
64598;SDS011;51008;51.504;11.548;2024-01-06T08:45:54;6.95;;;2.75;;
64598;SDS011;51008;51.504;11.548;2024-01-06T08:50:55;5.40;;;2.65;;
64598;SDS011;51008;51.504;11.548;2024-01-06T08:55:56;8.25;;;2.70;;
64598;SDS011;51008;51.504;11.548;2024-01-06T09:00:57;5.93;;;2.78;;
64598;SDS011;51008;51.504;11.548;2024-01-06T09:05:58;7.10;;;2.47;;
64598;SDS011;51008;51.504;11.548;2024-01-06T09:10:59;6.68;;;2.70;;
64598;SDS011;51008;51.504;11.548;2024-01-06T09:16:00;7.82;;;2.70;;
64598;SDS011;51008;51.504;11.548;2024-01-06T09:21:01;6.65;;;3.67;;
64598;SDS011;51008;51.504;11.548;2024-01-06T09:26:03;11.05;;;3.50;;
64598;SDS011;51008;51.504;11.548;2024-01-06T09:31:04;8.48;;;4.47;;
64598;SDS011;51008;51.504;11.548;2024-01-06T09:36:05;8.55;;;4.30;;
64598;SDS011;51008;51.504;11.548;2024-01-06T09:41:06;8.90;;;4.50;;
64598;SDS011;51008;51.504;11.548;2024-01-06T09:46:11;10.02;;;4.13;;
64598;SDS011;51008;51.504;11.548;2024-01-06T09:51:27;10.68;;;4.85;;
64598;SDS011;51008;51.504;11.548;2024-01-06T09:56:29;13.73;;;5.07;;
64598;SDS011;51008;51.504;11.548;2024-01-06T10:01:30;11.73;;;5.22;;
64598;SDS011;51008;51.504;11.548;2024-01-06T10:06:31;11.88;;;4.47;;
64598;SDS011;51008;51.504;11.548;2024-01-06T10:11:35;12.70;;;4.90;;
64598;SDS011;51008;51.504;11.548;2024-01-06T10:16:36;8.88;;;4.35;;
64598;SDS011;51008;51.504;11.548;2024-01-06T10:21:38;10.98;;;5.70;;
64598;SDS011;51008;51.504;11.548;2024-01-06T10:26:39;10.90;;;5.78;;
64598;SDS011;51008;51.504;11.548;2024-01-06T10:31:40;11.80;;;6.03;;
64598;SDS011;51008;51.504;11.548;2024-01-06T10:36:45;9.73;;;5.72;;
64598;SDS011;51008;51.504;11.548;2024-01-06T10:41:48;12.50;;;6.65;;
64598;SDS011;51008;51.504;11.548;2024-01-06T10:46:49;11.52;;;6.90;;
64598;SDS011;51008;51.504;11.548;2024-01-06T10:51:50;15.07;;;7.47;;
64598;SDS011;51008;51.504;11.548;2024-01-06T10:56:53;14.05;;;7.68;;
64598;SDS011;51008;51.504;11.548;2024-01-06T11:01:57;16.00;;;9.27;;
64598;SDS011;51008;51.504;11.548;2024-01-06T11:06:59;17.23;;;10.07;;
64598;SDS011;51008;51.504;11.548;2024-01-06T11:12:00;16.50;;;10.98;;
64598;SDS011;51008;51.504;11.548;2024-01-06T11:17:02;15.43;;;9.55;;
64598;SDS011;51008;51.504;11.548;2024-01-06T11:22:18;14.18;;;8.60;;
64598;SDS011;51008;51.504;11.548;2024-01-06T11:27:30;15.65;;;9.30;;
64598;SDS011;51008;51.504;11.548;2024-01-06T11:32:32;16.80;;;10.27;;
64598;SDS011;51008;51.504;11.548;2024-01-06T11:37:35;20.70;;;10.77;;
64598;SDS011;51008;51.504;11.548;2024-01-06T11:42:38;17.90;;;10.27;;
64598;SDS011;51008;51.504;11.548;2024-01-06T11:47:46;17.98;;;11.18;;
64598;SDS011;51008;51.504;11.548;2024-01-06T11:52:48;18.05;;;10.45;;
64598;SDS011;51008;51.504;11.548;2024-01-06T11:57:50;15.70;;;10.15;;
64598;SDS011;51008;51.504;11.548;2024-01-06T12:02:55;17.88;;;10.32;;
64598;SDS011;51008;51.504;11.548;2024-01-06T12:07:57;17.30;;;10.00;;
64598;SDS011;51008;51.504;11.548;2024-01-06T12:13:05;17.50;;;11.07;;
64598;SDS011;51008;51.504;11.548;2024-01-06T12:18:07;17.13;;;10.27;;
64598;SDS011;51008;51.504;11.548;2024-01-06T12:23:08;18.02;;;10.75;;
64598;SDS011;51008;51.504;11.548;2024-01-06T12:28:09;17.40;;;9.60;;
64598;SDS011;51008;51.504;11.548;2024-01-06T12:33:10;18.20;;;10.05;;
64598;SDS011;51008;51.504;11.548;2024-01-06T12:38:11;18.73;;;11.10;;
64598;SDS011;51008;51.504;11.548;2024-01-06T12:43:13;19.20;;;11.65;;
64598;SDS011;51008;51.504;11.548;2024-01-06T12:48:14;22.70;;;11.80;;
64598;SDS011;51008;51.504;11.548;2024-01-06T12:53:15;21.55;;;12.35;;
64598;SDS011;51008;51.504;11.548;2024-01-06T12:58:16;21.98;;;12.23;;
64598;SDS011;51008;51.504;11.548;2024-01-06T13:03:17;23.67;;;13.48;;
64598;SDS011;51008;51.504;11.548;2024-01-06T13:08:18;27.83;;;14.77;;
64598;SDS011;51008;51.504;11.548;2024-01-06T13:13:19;27.50;;;14.40;;
64598;SDS011;51008;51.504;11.548;2024-01-06T13:18:20;26.58;;;14.73;;
64598;SDS011;51008;51.504;11.548;2024-01-06T13:23:21;25.33;;;14.20;;
64598;SDS011;51008;51.504;11.548;2024-01-06T13:28:22;24.25;;;13.65;;
64598;SDS011;51008;51.504;11.548;2024-01-06T13:33:23;27.83;;;14.60;;
64598;SDS011;51008;51.504;11.548;2024-01-06T13:38:24;26.08;;;13.80;;
64598;SDS011;51008;51.504;11.548;2024-01-06T13:43:25;26.48;;;15.32;;
64598;SDS011;51008;51.504;11.548;2024-01-06T13:48:26;29.55;;;15.00;;
64598;SDS011;51008;51.504;11.548;2024-01-06T13:53:27;27.52;;;13.82;;
64598;SDS011;51008;51.504;11.548;2024-01-06T13:58:28;28.27;;;15.27;;
64598;SDS011;51008;51.504;11.548;2024-01-06T14:03:29;26.17;;;13.85;;
64598;SDS011;51008;51.504;11.548;2024-01-06T14:08:30;25.20;;;14.13;;
64598;SDS011;51008;51.504;11.548;2024-01-06T14:13:31;28.70;;;14.98;;
64598;SDS011;51008;51.504;11.548;2024-01-06T14:18:32;27.98;;;14.65;;
64598;SDS011;51008;51.504;11.548;2024-01-06T14:23:33;26.50;;;14.15;;
64598;SDS011;51008;51.504;11.548;2024-01-06T14:28:34;28.98;;;14.45;;
64598;SDS011;51008;51.504;11.548;2024-01-06T14:33:38;31.30;;;15.68;;
64598;SDS011;51008;51.504;11.548;2024-01-06T14:38:39;27.20;;;14.95;;
64598;SDS011;51008;51.504;11.548;2024-01-06T14:43:40;26.77;;;14.43;;
64598;SDS011;51008;51.504;11.548;2024-01-06T14:48:41;28.17;;;14.18;;
64598;SDS011;51008;51.504;11.548;2024-01-06T14:53:42;28.80;;;14.77;;
64598;SDS011;51008;51.504;11.548;2024-01-06T14:58:43;32.70;;;16.75;;
64598;SDS011;51008;51.504;11.548;2024-01-06T15:03:44;33.65;;;16.58;;
64598;SDS011;51008;51.504;11.548;2024-01-06T15:08:45;30.92;;;15.00;;
64598;SDS011;51008;51.504;11.548;2024-01-06T15:13:58;37.30;;;16.13;;
64598;SDS011;51008;51.504;11.548;2024-01-06T15:19:00;36.10;;;16.63;;
64598;SDS011;51008;51.504;11.548;2024-01-06T15:24:01;48.22;;;17.83;;
64598;SDS011;51008;51.504;11.548;2024-01-06T15:29:02;43.22;;;17.52;;
64598;SDS011;51008;51.504;11.548;2024-01-06T15:34:03;46.13;;;19.92;;
64598;SDS011;51008;51.504;11.548;2024-01-06T15:39:04;69.32;;;21.02;;
64598;SDS011;51008;51.504;11.548;2024-01-06T15:44:05;63.10;;;21.88;;
64598;SDS011;51008;51.504;11.548;2024-01-06T15:49:06;67.78;;;22.02;;
64598;SDS011;51008;51.504;11.548;2024-01-06T15:54:07;154.48;;;22.65;;
64598;SDS011;51008;51.504;11.548;2024-01-06T15:59:08;64.22;;;20.98;;
64598;SDS011;51008;51.504;11.548;2024-01-06T16:04:09;71.78;;;23.55;;
64598;SDS011;51008;51.504;11.548;2024-01-06T16:09:10;72.07;;;22.67;;
64598;SDS011;51008;51.504;11.548;2024-01-06T16:14:11;60.20;;;21.70;;
64598;SDS011;51008;51.504;11.548;2024-01-06T16:19:12;58.25;;;21.20;;
64598;SDS011;51008;51.504;11.548;2024-01-06T16:24:13;69.25;;;22.02;;
64598;SDS011;51008;51.504;11.548;2024-01-06T16:29:14;71.13;;;22.90;;
64598;SDS011;51008;51.504;11.548;2024-01-06T16:34:15;90.28;;;23.13;;
64598;SDS011;51008;51.504;11.548;2024-01-06T16:39:16;116.28;;;24.13;;
64598;SDS011;51008;51.504;11.548;2024-01-06T16:44:17;133.80;;;27.42;;
64598;SDS011;51008;51.504;11.548;2024-01-06T16:49:18;71.05;;;23.73;;
64598;SDS011;51008;51.504;11.548;2024-01-06T16:54:19;173.93;;;29.33;;
64598;SDS011;51008;51.504;11.548;2024-01-06T16:59:20;76.70;;;23.25;;
64598;SDS011;51008;51.504;11.548;2024-01-06T17:04:21;97.15;;;25.05;;
64598;SDS011;51008;51.504;11.548;2024-01-06T17:09:22;164.88;;;25.48;;
64598;SDS011;51008;51.504;11.548;2024-01-06T17:14:23;100.68;;;24.38;;
64598;SDS011;51008;51.504;11.548;2024-01-06T17:19:24;69.10;;;22.15;;
64598;SDS011;51008;51.504;11.548;2024-01-06T17:24:25;70.55;;;22.02;;
64598;SDS011;51008;51.504;11.548;2024-01-06T17:29:29;71.63;;;23.85;;
64598;SDS011;51008;51.504;11.548;2024-01-06T17:34:30;62.65;;;20.92;;
64598;SDS011;51008;51.504;11.548;2024-01-06T17:39:31;67.53;;;22.60;;
64598;SDS011;51008;51.504;11.548;2024-01-06T17:44:32;76.90;;;22.92;;
64598;SDS011;51008;51.504;11.548;2024-01-06T17:49:34;66.03;;;20.95;;
64598;SDS011;51008;51.504;11.548;2024-01-06T17:54:35;87.57;;;24.30;;
64598;SDS011;51008;51.504;11.548;2024-01-06T17:59:36;95.35;;;25.77;;
64598;SDS011;51008;51.504;11.548;2024-01-06T18:04:37;117.90;;;28.00;;
64598;SDS011;51008;51.504;11.548;2024-01-06T18:09:38;117.95;;;25.20;;
64598;SDS011;51008;51.504;11.548;2024-01-06T18:14:39;94.68;;;26.38;;
64598;SDS011;51008;51.504;11.548;2024-01-06T18:19:40;89.43;;;26.23;;
64598;SDS011;51008;51.504;11.548;2024-01-06T18:24:41;109.32;;;28.40;;
64598;SDS011;51008;51.504;11.548;2024-01-06T18:29:43;187.60;;;28.42;;
64598;SDS011;51008;51.504;11.548;2024-01-06T18:34:44;80.72;;;25.02;;
64598;SDS011;51008;51.504;11.548;2024-01-06T18:39:45;85.82;;;27.40;;
64598;SDS011;51008;51.504;11.548;2024-01-06T18:44:46;85.70;;;23.88;;
64598;SDS011;51008;51.504;11.548;2024-01-06T18:49:47;92.95;;;24.90;;
64598;SDS011;51008;51.504;11.548;2024-01-06T18:54:48;123.90;;;23.45;;
64598;SDS011;51008;51.504;11.548;2024-01-06T18:59:49;69.05;;;23.05;;
64598;SDS011;51008;51.504;11.548;2024-01-06T19:04:50;106.45;;;24.90;;
64598;SDS011;51008;51.504;11.548;2024-01-06T19:09:51;90.72;;;25.38;;
64598;SDS011;51008;51.504;11.548;2024-01-06T19:14:52;79.85;;;24.30;;
64598;SDS011;51008;51.504;11.548;2024-01-06T19:19:53;77.93;;;21.67;;
64598;SDS011;51008;51.504;11.548;2024-01-06T19:24:54;112.07;;;22.13;;
64598;SDS011;51008;51.504;11.548;2024-01-06T19:29:55;96.03;;;23.73;;
64598;SDS011;51008;51.504;11.548;2024-01-06T19:34:56;142.55;;;23.27;;
64598;SDS011;51008;51.504;11.548;2024-01-06T19:39:57;105.72;;;22.75;;
64598;SDS011;51008;51.504;11.548;2024-01-06T19:44:58;114.35;;;21.23;;
64598;SDS011;51008;51.504;11.548;2024-01-06T19:49:59;79.25;;;21.88;;
64598;SDS011;51008;51.504;11.548;2024-01-06T19:55:01;86.00;;;19.67;;
64598;SDS011;51008;51.504;11.548;2024-01-06T20:00:03;181.23;;;26.92;;
64598;SDS011;51008;51.504;11.548;2024-01-06T20:05:10;96.50;;;20.60;;
64598;SDS011;51008;51.504;11.548;2024-01-06T20:10:11;65.47;;;19.02;;
64598;SDS011;51008;51.504;11.548;2024-01-06T20:15:12;92.80;;;21.02;;
64598;SDS011;51008;51.504;11.548;2024-01-06T20:20:13;96.75;;;22.15;;
64598;SDS011;51008;51.504;11.548;2024-01-06T20:25:14;105.80;;;22.20;;
64598;SDS011;51008;51.504;11.548;2024-01-06T20:30:15;96.85;;;21.55;;
64598;SDS011;51008;51.504;11.548;2024-01-06T20:35:16;100.50;;;22.23;;
64598;SDS011;51008;51.504;11.548;2024-01-06T20:40:17;60.85;;;21.60;;
64598;SDS011;51008;51.504;11.548;2024-01-06T20:45:18;66.85;;;21.10;;
64598;SDS011;51008;51.504;11.548;2024-01-06T20:50:19;93.18;;;21.27;;
64598;SDS011;51008;51.504;11.548;2024-01-06T20:55:20;69.18;;;20.92;;
64598;SDS011;51008;51.504;11.548;2024-01-06T21:00:21;119.15;;;24.67;;
64598;SDS011;51008;51.504;11.548;2024-01-06T21:05:23;112.53;;;22.38;;
64598;SDS011;51008;51.504;11.548;2024-01-06T21:10:24;88.70;;;22.25;;
64598;SDS011;51008;51.504;11.548;2024-01-06T21:15:26;147.20;;;22.83;;
64598;SDS011;51008;51.504;11.548;2024-01-06T21:20:27;75.45;;;22.35;;
64598;SDS011;51008;51.504;11.548;2024-01-06T21:25:28;100.82;;;22.05;;
64598;SDS011;51008;51.504;11.548;2024-01-06T21:30:29;77.60;;;21.30;;
64598;SDS011;51008;51.504;11.548;2024-01-06T21:35:30;62.90;;;22.08;;
64598;SDS011;51008;51.504;11.548;2024-01-06T21:40:32;70.13;;;21.83;;
64598;SDS011;51008;51.504;11.548;2024-01-06T21:45:33;70.53;;;23.13;;
64598;SDS011;51008;51.504;11.548;2024-01-06T21:50:34;77.72;;;22.83;;
64598;SDS011;51008;51.504;11.548;2024-01-06T21:55:35;78.78;;;22.95;;
64598;SDS011;51008;51.504;11.548;2024-01-06T22:00:36;95.63;;;23.20;;
64598;SDS011;51008;51.504;11.548;2024-01-06T22:05:55;87.95;;;24.40;;
64598;SDS011;51008;51.504;11.548;2024-01-06T22:10:57;75.50;;;25.48;;
64598;SDS011;51008;51.504;11.548;2024-01-06T22:15:58;86.25;;;22.95;;
64598;SDS011;51008;51.504;11.548;2024-01-06T22:20:59;66.68;;;20.88;;
64598;SDS011;51008;51.504;11.548;2024-01-06T22:26:03;56.00;;;21.10;;
64598;SDS011;51008;51.504;11.548;2024-01-06T22:31:05;58.05;;;21.23;;
64598;SDS011;51008;51.504;11.548;2024-01-06T22:36:10;75.25;;;22.67;;
64598;SDS011;51008;51.504;11.548;2024-01-06T22:41:12;65.88;;;23.30;;
64598;SDS011;51008;51.504;11.548;2024-01-06T22:46:13;66.25;;;24.00;;
64598;SDS011;51008;51.504;11.548;2024-01-06T22:51:14;62.08;;;24.50;;
64598;SDS011;51008;51.504;11.548;2024-01-06T22:56:15;59.83;;;20.73;;
64598;SDS011;51008;51.504;11.548;2024-01-06T23:01:16;45.42;;;20.27;;
64598;SDS011;51008;51.504;11.548;2024-01-06T23:06:17;45.50;;;18.63;;
64598;SDS011;51008;51.504;11.548;2024-01-06T23:11:18;45.70;;;18.75;;
64598;SDS011;51008;51.504;11.548;2024-01-06T23:16:19;46.13;;;18.63;;
64598;SDS011;51008;51.504;11.548;2024-01-06T23:21:20;41.05;;;18.42;;
64598;SDS011;51008;51.504;11.548;2024-01-06T23:26:21;42.38;;;19.17;;
64598;SDS011;51008;51.504;11.548;2024-01-06T23:31:22;42.45;;;17.10;;
64598;SDS011;51008;51.504;11.548;2024-01-06T23:36:23;44.47;;;18.25;;
64598;SDS011;51008;51.504;11.548;2024-01-06T23:41:24;42.85;;;19.25;;
64598;SDS011;51008;51.504;11.548;2024-01-06T23:46:26;42.97;;;18.95;;
64598;SDS011;51008;51.504;11.548;2024-01-06T23:51:27;40.38;;;17.98;;
64598;SDS011;51008;51.504;11.548;2024-01-06T23:56:28;43.67;;;19.45;;
